Time;durP1;ratioP1;P1;durP2;ratioP2;P2;SDS_P1;SDS_P2;PMS_P1;PMS_P2;Temp;Humidity;BMP_temperature;BMP_pressure;BME280_temperature;BME280_humidity;BME280_pressure;Samples;Min_cycle;Max_cycle;Signal;HPM_P1;HPM_P2
2022/07/13 00:02:05;;;;;;;6.00;3.45;;;;;;;12.81;100.00;96308.72;5040383;28;20041;-78
2022/07/13 00:04:30;;;;;;;8.60;3.35;;;;;;;12.99;100.00;96313.47;5048955;28;20075;-77
2022/07/13 00:06:56;;;;;;;5.53;3.72;;;;;;;12.93;100.00;96309.25;5043812;28;20119;-78
2022/07/13 00:09:21;;;;;;;5.35;3.30;;;;;;;12.91;100.00;96316.63;5034588;28;20045;-78
2022/07/13 00:11:46;;;;;;;7.53;3.58;;;;;;;12.91;100.00;96306.06;5049495;28;20037;-78
2022/07/13 00:14:12;;;;;;;6.25;3.58;;;;;;;12.72;100.00;96307.66;5041633;28;20202;-78
2022/07/13 00:16:38;;;;;;;9.75;4.00;;;;;;;12.91;100.00;96300.78;5040830;28;20049;-77
2022/07/13 00:19:03;;;;;;;6.28;3.70;;;;;;;12.87;100.00;96294.44;5041790;28;20483;-77
2022/07/13 00:21:28;;;;;;;7.30;3.75;;;;;;;12.82;100.00;96291.81;5037776;28;20069;-77
2022/07/13 00:23:54;;;;;;;7.60;3.75;;;;;;;12.83;100.00;96301.31;5041565;28;20052;-77
2022/07/13 00:26:19;;;;;;;7.35;3.72;;;;;;;12.83;100.00;96293.41;5046320;28;20668;-77
2022/07/13 00:28:45;;;;;;;7.85;3.67;;;;;;;12.82;100.00;96291.81;5041567;28;20063;-77
2022/07/13 00:31:10;;;;;;;7.50;3.80;;;;;;;12.77;100.00;96291.81;5047823;28;20049;-77
2022/07/13 00:33:36;;;;;;;5.90;3.75;;;;;;;12.69;100.00;96290.47;5042509;28;20116;-78
2022/07/13 00:36:01;;;;;;;8.57;3.35;;;;;;;12.60;100.00;96284.94;5043810;28;20040;-78
2022/07/13 00:38:27;;;;;;;6.35;3.70;;;;;;;12.65;100.00;96282.28;5049682;28;20037;-78
2022/07/13 00:40:52;;;;;;;6.15;3.53;;;;;;;12.74;100.00;96284.41;5044124;28;20578;-77
2022/07/13 00:43:18;;;;;;;9.50;3.70;;;;;;;12.74;100.00;96284.41;5048417;28;20037;-78
2022/07/13 00:45:43;;;;;;;6.38;3.47;;;;;;;12.69;100.00;96289.69;5049764;28;20033;-78
2022/07/13 00:48:10;;;;;;;5.63;3.78;;;;;;;12.55;100.00;96287.56;5041014;28;20124;-78
2022/07/13 00:50:35;;;;;;;8.95;3.60;;;;;;;12.64;100.00;96288.63;5049854;28;20037;-79
2022/07/13 00:53:01;;;;;;;5.68;3.22;;;;;;;12.62;100.00;96282.03;5046539;28;20040;-79
2022/07/13 00:55:28;;;;;;;7.25;3.40;;;;;;;12.46;100.00;96275.94;5051819;28;20057;-79
2022/07/13 00:57:54;;;;;;;5.30;3.05;;;;;;;12.54;100.00;96280.72;5049328;28;20037;-79
2022/07/13 01:00:19;;;;;;;4.97;3.15;;;;;;;12.61;100.00;96286.53;5043432;28;20160;-79
2022/07/13 01:02:47;;;;;;;6.20;3.38;;;;;;;12.61;100.00;96286.53;5047164;28;20045;-78
2022/07/13 01:05:14;;;;;;;7.10;3.00;;;;;;;12.49;100.00;96283.34;5044782;28;20170;-80
2022/07/13 01:07:40;;;;;;;5.40;3.08;;;;;;;12.39;100.00;96278.03;5043708;28;20091;-79
2022/07/13 01:10:08;;;;;;;4.50;2.65;;;;;;;12.46;100.00;96278.59;5043231;28;20085;-78
2022/07/13 01:12:35;;;;;;;4.50;2.90;;;;;;;12.46;100.00;96273.31;5043067;28;20411;-78
2022/07/13 01:15:02;;;;;;;5.53;3.00;;;;;;;12.49;100.00;96272.78;5050782;28;20045;-79
2022/07/13 01:17:29;;;;;;;4.60;3.05;;;;;;;12.47;100.00;96280.97;5050566;28;20098;-80
2022/07/13 01:19:56;;;;;;;6.90;2.95;;;;;;;12.43;100.00;96287.03;5046490;28;20041;-79
2022/07/13 01:22:25;;;;;;;3.85;2.70;;;;;;;12.39;100.00;96288.59;5050359;28;20037;-79
2022/07/13 01:24:51;;;;;;;4.97;2.47;;;;;;;12.32;100.00;96288.06;5036287;28;20033;-79
2022/07/13 01:27:18;;;;;;;6.13;2.60;;;;;;;12.40;100.00;96280.41;5042861;28;20041;-79
2022/07/13 01:29:43;;;;;;;6.20;3.13;;;;;;;12.39;100.00;96272.75;5044251;28;20123;-79
2022/07/13 01:32:09;;;;;;;4.03;2.45;;;;;;;12.35;100.00;96269.84;5044016;28;20101;-79
2022/07/13 01:34:34;;;;;;;3.38;2.45;;;;;;;12.27;100.00;96276.44;5044594;28;20076;-79
2022/07/13 01:37:00;;;;;;;4.05;2.47;;;;;;;12.21;100.00;96277.50;5037236;28;20037;-79
2022/07/13 01:39:27;;;;;;;4.82;2.40;;;;;;;12.10;100.00;96278.50;5047786;28;20068;-79
2022/07/13 01:41:53;;;;;;;3.55;2.30;;;;;;;12.08;100.00;96277.97;5048314;28;20048;-79
2022/07/13 01:44:18;;;;;;;3.70;2.33;;;;;;;12.03;100.00;96275.31;5042165;28;20466;-79
2022/07/13 01:46:44;;;;;;;3.95;2.30;;;;;;;11.99;100.00;96284.81;5038747;28;20049;-80
2022/07/13 01:49:10;;;;;;;4.28;2.58;;;;;;;12.12;100.00;96279.03;5063697;28;20025;-81
2022/07/13 01:51:36;;;;;;;3.90;2.22;;;;;;;12.09;100.00;96271.63;5076774;28;20093;-80
2022/07/13 01:54:01;;;;;;;3.38;2.40;;;;;;;12.11;100.00;96277.44;5071788;28;20033;-81
2022/07/13 01:56:27;;;;;;;4.00;2.30;;;;;;;12.06;100.00;96282.72;5070211;28;20108;-80
2022/07/13 01:58:52;;;;;;;4.32;2.20;;;;;;;12.08;100.00;96280.59;5071734;28;20048;-80
2022/07/13 02:01:18;;;;;;;3.40;2.10;;;;;;;11.95;100.00;96274.78;5075951;28;20025;-80
2022/07/13 02:03:44;;;;;;;3.45;2.20;;;;;;;11.98;100.00;96267.38;5072281;28;20075;-80
2022/07/13 02:06:10;;;;;;;3.45;2.30;;;;;;;11.89;100.00;96275.75;5077018;28;20051;-80
2022/07/13 02:08:35;;;;;;;3.35;2.30;;;;;;;11.88;100.00;96279.47;5069258;28;20022;-80
2022/07/13 02:11:01;;;;;;;2.75;2.10;;;;;;;11.94;100.00;96272.41;5074239;28;20089;-78
2022/07/13 02:13:26;;;;;;;3.63;2.10;;;;;;;12.04;100.00;96277.69;5070071;28;20094;-79
2022/07/13 02:15:53;;;;;;;3.40;2.20;;;;;;;12.04;100.00;96276.88;5074659;28;20039;-78
2022/07/13 02:18:19;;;;;;;2.90;2.00;;;;;;;11.84;100.00;96278.41;5074811;28;20083;-79
2022/07/13 02:20:44;;;;;;;4.13;2.20;;;;;;;11.75;100.00;96274.66;5069476;28;20061;-79
2022/07/13 02:23:09;;;;;;;3.53;2.08;;;;;;;11.66;100.00;96271.72;5073931;28;20033;-78
2022/07/13 02:25:37;;;;;;;3.10;2.00;;;;;;;11.65;100.00;96275.41;5060258;28;20037;-77
2022/07/13 02:28:04;;;;;;;3.90;2.33;;;;;;;11.72;100.00;96281.25;5050631;28;20068;-78
2022/07/13 02:30:30;;;;;;;3.58;2.00;;;;;;;11.74;100.00;96278.34;5049117;28;20506;-79
2022/07/13 02:32:55;;;;;;;4.63;2.08;;;;;;;11.64;100.00;96288.84;5049857;28;20037;-78
2022/07/13 02:35:21;;;;;;;3.58;2.17;;;;;;;11.64;100.00;96283.56;5048749;28;20037;-78
2022/07/13 02:37:46;;;;;;;3.63;2.00;;;;;;;11.54;100.00;96279.06;5048848;28;20502;-78
2022/07/13 02:40:12;;;;;;;3.63;2.40;;;;;;;11.63;100.00;96277.50;5046759;28;20222;-78
2022/07/13 02:42:38;;;;;;;2.47;2.00;;;;;;;11.61;100.00;96267.22;5040635;28;20049;-78
2022/07/13 02:45:05;;;;;;;3.22;2.10;;;;;;;11.49;100.00;96266.63;5042328;28;20044;-77
2022/07/13 02:47:31;;;;;;;5.13;2.40;;;;;;;11.61;100.00;96279.63;5049981;28;20059;-77
2022/07/13 02:49:56;;;;;;;5.18;2.10;;;;;;;11.64;100.00;96278.28;5048379;28;20037;-79
2022/07/13 02:52:22;;;;;;;2.95;2.15;;;;;;;11.55;100.00;96281.44;5047213;28;20520;-78
2022/07/13 02:54:47;;;;;;;3.42;2.25;;;;;;;11.67;100.00;96277.81;5042272;28;20219;-77
2022/07/13 02:57:13;;;;;;;3.33;2.22;;;;;;;11.63;100.00;96276.72;5049539;28;20529;-77
2022/07/13 02:59:38;;;;;;;2.90;2.10;;;;;;;11.65;100.00;96269.34;5037092;28;20049;-77
2022/07/13 03:02:05;;;;;;;4.30;2.40;;;;;;;11.56;100.00;96267.19;5049716;28;20119;-77
2022/07/13 03:04:32;;;;;;;2.75;2.08;;;;;;;11.53;100.00;96267.69;5047626;28;20056;-77
2022/07/13 03:06:58;;;;;;;3.80;2.30;;;;;;;11.50;100.00;96273.50;5048070;28;20045;-77
2022/07/13 03:09:23;;;;;;;2.85;1.95;;;;;;;11.47;100.00;96263.47;5047507;28;20094;-77
2022/07/13 03:11:49;;;;;;;3.13;2.42;;;;;;;11.52;100.00;96262.69;5036794;28;20029;-77
2022/07/13 03:14:14;;;;;;;4.90;2.20;;;;;;;11.49;100.00;96264.00;5045150;28;20052;-77
2022/07/13 03:16:40;;;;;;;4.03;2.20;;;;;;;11.48;100.00;96259.78;5046513;28;21887;-77
2022/07/13 03:19:05;;;;;;;3.08;2.20;;;;;;;11.46;100.00;96261.09;5046846;28;20033;-77
2022/07/13 03:21:31;;;;;;;2.97;2.03;;;;;;;11.49;100.00;96266.63;5049147;28;20044;-77
2022/07/13 03:23:56;;;;;;;4.38;2.30;;;;;;;11.48;100.00;96275.59;5049094;28;20041;-77
2022/07/13 03:26:23;;;;;;;4.43;2.00;;;;;;;11.41;100.00;96275.03;5046400;28;20095;-77
2022/07/13 03:28:48;;;;;;;4.90;2.28;;;;;;;11.36;100.00;96277.63;5044714;28;20044;-78
2022/07/13 03:31:14;;;;;;;3.25;2.13;;;;;;;11.40;100.00;96278.72;5044170;28;20510;-78
2022/07/13 03:33:39;;;;;;;3.88;1.90;;;;;;;11.46;100.00;96272.41;5049209;28;20041;-78
2022/07/13 03:36:05;;;;;;;3.42;2.05;;;;;;;11.24;100.00;96273.34;5046573;28;20048;-78
2022/07/13 03:38:31;;;;;;;5.38;2.25;;;;;;;11.33;100.00;96272.88;5039860;28;20076;-78
2022/07/13 03:40:56;;;;;;;3.33;2.20;;;;;;;11.38;100.00;96280.81;5047898;28;20045;-78
2022/07/13 03:43:22;;;;;;;3.50;2.30;;;;;;;11.34;100.00;96274.47;5046860;28;20041;-79
2022/07/13 03:45:48;;;;;;;4.80;2.13;;;;;;;11.31;100.00;96274.97;5050457;28;20041;-78
2022/07/13 03:48:13;;;;;;;4.35;2.30;;;;;;;11.30;100.00;96278.66;5043297;28;20042;-78
2022/07/13 03:50:39;;;;;;;3.70;2.05;;;;;;;11.43;100.00;96267.66;5041912;28;20048;-79
2022/07/13 03:53:05;;;;;;;3.13;2.10;;;;;;;11.42;100.00;96287.16;5046950;28;20449;-78
2022/07/13 03:55:31;;;;;;;3.75;1.88;;;;;;;11.41;100.00;96282.94;5045551;28;20056;-78
2022/07/13 03:57:56;;;;;;;2.90;2.00;;;;;;;11.45;100.00;96273.47;5037106;28;20487;-78
2022/07/13 04:00:22;;;;;;;4.88;2.28;;;;;;;11.50;100.00;96278.75;5047402;28;20044;-78
2022/07/13 04:02:48;;;;;;;2.83;2.20;;;;;;;11.54;100.00;96279.06;5033686;28;20048;-78
2022/07/13 04:05:13;;;;;;;4.05;2.20;;;;;;;11.50;100.00;96278.75;5047101;28;20487;-78
2022/07/13 04:07:39;;;;;;;3.58;2.08;;;;;;;11.42;100.00;96281.88;5042444;28;20037;-78
2022/07/13 04:10:05;;;;;;;3.28;2.20;;;;;;;11.42;100.00;96276.59;5042197;28;20049;-78
2022/07/13 04:12:30;;;;;;;4.30;2.10;;;;;;;11.32;100.00;96268.66;5040656;28;20112;-79
2022/07/13 04:14:56;;;;;;;2.78;2.00;;;;;;;11.32;100.00;96272.09;5042790;28;20033;-79
2022/07/13 04:17:21;;;;;;;3.53;2.30;;;;;;;11.40;100.00;96262.91;5044359;28;20542;-79
2022/07/13 04:19:46;;;;;;;2.72;2.22;;;;;;;11.53;100.00;96267.69;5040347;28;20120;-78
2022/07/13 04:22:12;;;;;;;3.53;2.20;;;;;;;11.55;100.00;96260.34;5039436;28;20037;-78
2022/07/13 04:24:37;;;;;;;3.25;1.90;;;;;;;11.60;100.00;96257.72;5047443;28;20068;-77
2022/07/13 04:27:03;;;;;;;4.65;2.03;;;;;;;11.65;100.00;96259.59;5051922;28;20041;-78
2022/07/13 04:29:28;;;;;;;3.65;2.17;;;;;;;11.61;100.00;96258.53;5047460;28;20109;-77
2022/07/13 04:31:54;;;;;;;4.30;2.50;;;;;;;11.67;100.00;96261.97;5047333;28;20423;-78
2022/07/13 04:34:19;;;;;;;5.03;2.15;;;;;;;11.73;100.00;96258.31;5050779;28;20037;-78
2022/07/13 04:36:45;;;;;;;4.18;2.47;;;;;;;11.75;100.00;96257.00;5046364;28;20099;-77
2022/07/13 04:39:12;;;;;;;3.47;2.38;;;;;;;11.72;100.00;96248.81;5042331;28;20487;-78
2022/07/13 04:41:38;;;;;;;2.80;2.10;;;;;;;11.87;100.00;96246.22;5046212;28;20559;-78
2022/07/13 04:44:03;;;;;;;5.47;2.38;;;;;;;11.94;100.00;96241.53;5051690;28;20118;-77
2022/07/13 04:46:29;;;;;;;2.60;2.08;;;;;;;12.02;100.00;96252.63;5046979;28;20408;-77
2022/07/13 04:48:54;;;;;;;3.45;2.13;;;;;;;12.07;100.00;96244.75;5046839;28;20075;-78
2022/07/13 04:51:20;;;;;;;5.15;2.08;;;;;;;12.12;100.00;96237.63;5045887;28;20121;-78
2022/07/13 04:53:45;;;;;;;3.47;2.38;;;;;;;12.22;100.00;96239.47;5047333;28;20134;-78
2022/07/13 04:56:12;;;;;;;4.32;2.38;;;;;;;12.33;100.00;96242.16;5053040;28;20045;-78
2022/07/13 04:58:38;;;;;;;2.97;2.13;;;;;;;12.40;100.00;96243.47;5044726;28;20510;-77
2022/07/13 05:01:06;;;;;;;5.40;2.38;;;;;;;12.44;100.00;96236.63;5048120;28;20044;-77
2022/07/13 05:03:36;;;;;;;3.35;2.60;;;;;;;12.52;100.00;96240.56;5045897;28;20503;-77
2022/07/13 05:06:01;;;;;;;4.53;2.45;;;;;;;12.58;100.00;96239.50;5036139;28;20041;-78
2022/07/13 05:08:27;;;;;;;4.10;2.45;;;;;;;12.68;100.00;96240.56;5038087;28;20049;-81
2022/07/13 05:10:53;;;;;;;3.85;2.60;;;;;;;12.75;100.00;96233.19;5040911;28;20052;-77
2022/07/13 05:13:20;;;;;;;4.30;2.78;;;;;;;12.81;100.00;96234.75;5050271;28;20064;-77
2022/07/13 05:15:45;;;;;;;4.60;2.58;;;;;;;12.87;100.00;96227.63;5051029;28;20068;-77
2022/07/13 05:18:11;;;;;;;3.92;2.78;;;;;;;12.97;100.00;96231.06;5038528;28;20083;-78
2022/07/13 05:20:37;;;;;;;5.93;2.33;;;;;;;13.02;100.00;96227.59;5051121;28;20049;-78
2022/07/13 05:23:03;;;;;;;5.13;2.35;;;;;;;13.40;100.00;96222.00;5044446;28;20056;-78
2022/07/13 05:25:28;;;;;;;6.78;2.75;;;;;;;13.49;100.00;96220.38;5043117;28;20063;-78
2022/07/13 05:27:54;;;;;;;3.60;2.45;;;;;;;13.51;100.00;96218.25;5049226;28;20041;-80
2022/07/13 05:30:20;;;;;;;5.28;2.60;;;;;;;13.54;100.00;96223.00;5049577;28;20037;-80
2022/07/13 05:32:45;;;;;;;5.28;2.60;;;;;;;13.60;100.00;96229.84;5047517;28;20037;-79
2022/07/13 05:35:11;;;;;;;3.63;2.58;;;;;;;14.16;100.00;96227.97;5048803;28;20060;-78
2022/07/13 05:37:36;;;;;;;3.90;2.38;;;;;;;14.67;100.00;96227.66;5046264;28;20044;-79
2022/07/13 05:40:02;;;;;;;4.18;2.50;;;;;;;15.01;100.00;96237.44;5051050;28;20128;-78
2022/07/13 05:42:28;;;;;;;4.70;2.30;;;;;;;15.43;100.00;96227.19;5049804;28;20415;-78
2022/07/13 05:44:54;;;;;;;4.50;2.20;;;;;;;15.51;100.00;96228.44;5050531;28;20045;-78
2022/07/13 05:47:19;;;;;;;5.20;2.20;;;;;;;15.71;100.00;96225.53;5043173;28;20046;-78
2022/07/13 05:49:45;;;;;;;5.10;2.30;;;;;;;15.90;100.00;96230.09;5047145;28;20514;-79
2022/07/13 05:52:11;;;;;;;4.35;2.30;;;;;;;15.98;100.00;96232.13;5048236;28;20048;-77
2022/07/13 05:54:36;;;;;;;3.20;2.30;;;;;;;16.21;98.62;96219.09;5047374;28;20041;-77
2022/07/13 05:57:02;;;;;;;3.42;2.00;;;;;;;16.30;97.04;96217.34;5049919;28;20052;-77
2022/07/13 05:59:29;;;;;;;3.80;2.13;;;;;;;16.58;94.85;96223.56;5048944;28;20044;-77
2022/07/13 06:01:54;;;;;;;3.53;2.20;;;;;;;16.66;94.35;96218.66;5044705;28;20491;-77
2022/07/13 06:04:20;;;;;;;3.97;2.28;;;;;;;16.79;92.08;96216.06;5048029;28;20080;-78
2022/07/13 06:06:46;;;;;;;3.05;2.15;;;;;;;17.14;88.01;96208.56;5048734;28;20529;-78
2022/07/13 06:09:12;;;;;;;3.75;2.00;;;;;;;17.30;87.79;96210.94;5044266;28;20068;-78
2022/07/13 06:11:39;;;;;;;4.88;2.25;;;;;;;17.40;87.31;96205.41;5040749;28;20073;-78
2022/07/13 06:14:06;;;;;;;4.72;2.45;;;;;;;17.44;86.71;96195.75;5044144;28;20045;-78
2022/07/13 06:16:32;;;;;;;2.72;2.05;;;;;;;17.70;83.61;96203.22;5047349;28;20041;-76
2022/07/13 06:18:57;;;;;;;4.70;2.30;;;;;;;17.97;83.41;96193.63;5049826;28;20037;-76
2022/07/13 06:21:23;;;;;;;3.28;2.10;;;;;;;17.90;84.43;96185.25;5044397;28;20044;-78
2022/07/13 06:23:48;;;;;;;4.72;2.17;;;;;;;17.97;83.39;96186.44;5044861;28;20047;-80
2022/07/13 06:26:14;;;;;;;3.22;2.10;;;;;;;17.95;84.73;96188.59;5043572;28;20033;-78
2022/07/13 06:28:39;;;;;;;4.00;2.17;;;;;;;18.00;85.39;96195.69;5036873;28;20042;-78
2022/07/13 06:31:05;;;;;;;2.67;2.00;;;;;;;17.91;85.46;96192.94;5043360;28;20048;-78
2022/07/13 06:33:30;;;;;;;2.92;2.13;;;;;;;17.89;85.38;96204.97;5051241;28;20045;-79
2022/07/13 06:35:56;;;;;;;4.22;1.90;;;;;;;18.41;81.26;96204.66;5044235;28;20083;-78
2022/07/13 06:38:21;;;;;;;3.25;2.15;;;;;;;18.48;81.26;96189.81;5046729;28;20033;-78
2022/07/13 06:40:49;;;;;;;2.75;2.00;;;;;;;18.55;82.50;96191.25;5043483;28;20115;-80
2022/07/13 06:43:15;;;;;;;4.82;2.00;;;;;;;18.78;78.90;96192.81;5052681;28;20398;-77
2022/07/13 06:45:41;;;;;;;3.42;1.98;;;;;;;18.94;78.17;96189.81;5042798;28;20495;-78
2022/07/13 06:48:07;;;;;;;2.55;1.80;;;;;;;19.15;77.45;96190.84;5038806;28;20104;-78
2022/07/13 06:50:32;;;;;;;4.32;2.10;;;;;;;19.30;75.50;96188.84;5045295;28;20099;-79
2022/07/13 06:52:58;;;;;;;2.78;1.90;;;;;;;19.48;72.61;96176.34;5035004;28;20040;-78
2022/07/13 06:55:23;;;;;;;4.80;2.03;;;;;;;19.52;73.14;96177.28;5039689;28;20494;-78
2022/07/13 06:57:49;;;;;;;3.42;1.92;;;;;;;19.48;71.23;96171.81;5045254;28;20037;-78
2022/07/13 07:00:15;;;;;;;3.00;2.10;;;;;;;19.61;71.91;96169.31;5049770;28;20115;-78
2022/07/13 07:02:40;;;;;;;3.90;1.88;;;;;;;19.87;70.23;96178.19;5048465;28;20041;-79
2022/07/13 07:05:09;;;;;;;5.05;1.90;;;;;;;19.65;71.97;96170.25;5042601;28;20079;-78
2022/07/13 07:07:38;;;;;;;2.85;1.90;;;;;;;19.78;70.58;96166.66;5043144;28;20521;-79
2022/07/13 07:10:07;;;;;;;5.47;1.70;;;;;;;20.10;70.63;96169.22;5039241;28;20056;-78
2022/07/13 07:12:32;;;;;;;2.20;1.77;;;;;;;19.69;75.80;96171.22;5036185;28;20404;-80
2022/07/13 07:14:58;;;;;;;2.35;1.70;;;;;;;19.47;76.82;96170.22;5044773;28;20052;-79
2022/07/13 07:17:23;;;;;;;2.45;1.73;;;;;;;19.77;69.07;96178.44;5046953;28;20048;-78
2022/07/13 07:19:49;;;;;;;5.30;1.90;;;;;;;19.65;69.01;96175.59;5044341;28;20037;-78
2022/07/13 07:22:14;;;;;;;2.53;1.60;;;;;;;20.12;64.32;96167.81;5038664;28;20049;-78
2022/07/13 07:24:40;;;;;;;2.95;1.70;;;;;;;20.06;64.71;96169.06;5040263;28;20353;-79
2022/07/13 07:27:07;;;;;;;2.50;1.67;;;;;;;20.01;62.15;96179.91;5041412;28;20044;-77
2022/07/13 07:29:39;;;;;;;1.60;1.42;;;;;;;19.92;61.44;96184.47;5040496;28;20045;-80
2022/07/13 07:32:05;;;;;;;2.85;1.50;;;;;;;20.30;58.14;96184.66;5039692;28;20041;-80
2022/07/13 07:34:31;;;;;;;1.90;1.70;;;;;;;19.94;62.54;96182.25;5044264;28;20040;-78
2022/07/13 07:36:56;;;;;;;2.42;1.50;;;;;;;19.92;59.14;96179.13;5043237;28;20524;-78
2022/07/13 07:39:22;;;;;;;2.28;1.50;;;;;;;19.75;58.09;96180.63;5041314;28;20037;-79
2022/07/13 07:41:48;;;;;;;2.28;1.60;;;;;;;19.72;61.79;96186.59;5040411;28;20037;-78
2022/07/13 07:44:14;;;;;;;1.88;1.50;;;;;;;20.14;57.57;96183.53;5040840;28;20037;-79
2022/07/13 07:46:41;;;;;;;4.65;1.50;;;;;;;20.23;57.88;96185.09;5038441;28;20042;-77
2022/07/13 07:49:06;;;;;;;2.20;1.65;;;;;;;20.28;57.83;96180.72;5043394;28;20123;-78
2022/07/13 07:51:32;;;;;;;2.83;1.70;;;;;;;19.99;62.87;96179.44;5044374;28;20033;-77
2022/07/13 07:53:58;;;;;;;3.10;1.70;;;;;;;19.94;60.85;96176.91;5046273;28;20067;-77
2022/07/13 07:56:24;;;;;;;3.05;1.80;;;;;;;19.80;64.29;96172.50;5035390;28;20102;-78
2022/07/13 07:58:50;;;;;;;2.08;1.75;;;;;;;19.81;63.88;96174.09;5044582;28;20112;-77
2022/07/13 08:01:15;;;;;;;1.65;1.40;;;;;;;20.03;56.68;96175.84;5050459;28;20075;-79
2022/07/13 08:03:41;;;;;;;1.50;1.40;;;;;;;20.70;52.88;96170.28;5051335;28;20087;-79
2022/07/13 08:06:06;;;;;;;1.63;1.48;;;;;;;21.08;53.84;96172.22;5049181;28;20079;-78
2022/07/13 08:08:32;;;;;;;2.45;1.50;;;;;;;21.31;51.54;96166.63;5042905;28;20041;-78
2022/07/13 08:10:58;;;;;;;2.75;1.58;;;;;;;21.10;55.20;96161.97;5041055;28;20049;-80
2022/07/13 08:13:24;;;;;;;2.45;1.70;;;;;;;20.86;57.96;96163.34;5047157;28;20091;-79
2022/07/13 08:15:49;;;;;;;1.98;1.60;;;;;;;21.22;53.74;96163.97;5046722;28;20410;-79
2022/07/13 08:18:15;;;;;;;2.20;1.80;;;;;;;20.92;55.01;96167.41;5046677;28;21651;-78
2022/07/13 08:20:40;;;;;;;4.15;1.85;;;;;;;21.01;56.12;96163.91;5048219;28;20041;-79
2022/07/13 08:23:50;;;;;;;4.65;1.60;;;;;;;21.18;53.93;96168.44;5048893;28;20037;-78
2022/07/13 08:25:52;;;;;;;5.22;1.65;;;;;;;21.88;50.97;96168.84;5051678;28;20050;-79
2022/07/13 08:28:17;;;;;;;1.40;1.30;;;;;;;21.88;50.82;96163.50;5049932;28;20037;-79
2022/07/13 08:30:43;;;;;;;3.20;1.65;;;;;;;21.94;51.05;96169.44;5037899;28;20051;-80
2022/07/13 08:33:08;;;;;;;3.40;1.73;;;;;;;21.95;53.24;96173.66;5043160;28;20103;-79
2022/07/13 08:38:36;;;;;;;3.97;2.00;;;;;;;22.19;51.54;96172.25;5048477;28;20483;-81
2022/07/13 08:41:02;;;;;;;2.28;1.60;;;;;;;22.12;50.65;96172.75;5045770;28;20491;-79
2022/07/13 08:43:27;;;;;;;4.30;1.70;;;;;;;22.49;47.80;96170.25;5045590;28;20033;-79
2022/07/13 08:45:53;;;;;;;2.70;1.60;;;;;;;22.66;48.23;96175.44;5040942;28;20447;-80
2022/07/13 08:48:29;;;;;;;6.00;3.60;;;;;;;22.99;46.59;96171.94;5041000;28;20052;-79
2022/07/13 08:50:54;;;;;;;2.60;1.70;;;;;;;23.10;48.69;96166.13;5042115;28;20037;-81
2022/07/13 08:53:20;;;;;;;2.03;1.65;;;;;;;23.28;43.72;96164.84;5039839;28;20052;-80
2022/07/13 08:55:46;;;;;;;2.47;1.60;;;;;;;23.35;43.30;96161.59;5053991;28;20430;-78
2022/07/13 08:58:15;;;;;;;1.98;1.70;;;;;;;23.43;44.96;96163.41;5041296;28;20075;-78
2022/07/13 09:00:41;;;;;;;2.30;1.50;;;;;;;23.41;45.20;96159.47;5051606;28;20037;-78
2022/07/13 09:03:06;;;;;;;1.88;1.55;;;;;;;23.29;47.07;96169.09;5051822;28;20041;-80
2022/07/13 09:05:33;;;;;;;3.85;1.60;;;;;;;23.21;45.32;96178.03;5046714;28;20044;-77
2022/07/13 09:08:05;;;;;;;3.85;1.60;;;;;;;23.18;46.56;96162.59;5050619;28;20068;-78
2022/07/13 09:10:31;;;;;;;3.17;1.60;;;;;;;23.15;47.15;96165.97;5037448;28;20122;-79
2022/07/13 09:12:56;;;;;;;1.92;1.67;;;;;;;23.23;48.16;96165.06;5049715;28;20057;-77
2022/07/13 09:15:22;;;;;;;2.97;1.60;;;;;;;23.67;44.66;96165.25;5050633;28;20045;-77
2022/07/13 09:17:47;;;;;;;2.88;1.80;;;;;;;23.77;46.98;96149.81;5051549;28;20060;-77
2022/07/13 09:20:13;;;;;;;2.60;1.65;;;;;;;23.76;43.97;96161.66;5042953;28;20045;-79
2022/07/13 09:22:58;;;;;;;1.90;1.70;;;;;;;24.20;43.90;96161.81;5047573;28;20049;-78
2022/07/13 09:25:24;;;;;;;3.38;1.73;;;;;;;24.29;45.47;96167.81;5042261;28;20041;-79
2022/07/13 09:27:50;;;;;;;3.17;1.80;;;;;;;24.19;42.52;96165.63;5051908;28;20445;-78
2022/07/13 09:30:25;;;;;;;2.10;1.60;;;;;;;24.41;41.13;96161.63;5043947;28;20045;-78
2022/07/13 09:32:56;;;;;;;2.90;1.60;;;;;;;24.52;42.62;96161.91;5053599;28;20052;-79
2022/07/13 09:35:41;;;;;;;3.10;1.63;;;;;;;24.32;49.72;96164.47;5052640;28;20045;-78
2022/07/13 09:38:07;;;;;;;2.90;1.60;;;;;;;24.41;43.11;96166.22;5049668;28;20513;-80
2022/07/13 09:40:33;;;;;;;2.20;1.63;;;;;;;24.44;49.48;96157.44;5045936;28;20045;-78
2022/07/13 09:48:31;;;;;;;;;;;;;;;24.75;39.96;96164.06;5045491;28;20518;-79
2022/07/13 09:50:56;;;;;;;2.58;1.60;;;;;;;24.65;40.57;96165.34;5037887;28;20016;-78
2022/07/13 09:53:30;;;;;;;1.80;1.52;;;;;;;25.27;41.68;96164.94;5050013;28;20045;-78
2022/07/13 09:55:57;;;;;;;1.67;1.45;;;;;;;25.40;38.95;96161.03;5049926;28;20048;-79
2022/07/13 09:58:27;;;;;;;2.30;1.73;;;;;;;25.21;39.91;96159.84;5049090;28;20050;-80
2022/07/13 10:00:54;;;;;;;2.90;1.70;;;;;;;25.99;39.71;96161.16;5046866;28;20044;-78
2022/07/13 10:03:20;;;;;;;2.00;1.80;;;;;;;26.30;36.00;96162.97;5052773;28;20037;-79
2022/07/13 10:05:46;;;;;;;4.55;1.70;;;;;;;26.03;34.64;96154.75;5052679;28;20045;-78
2022/07/13 10:08:12;;;;;;;3.38;1.83;;;;;;;25.84;38.40;96157.41;5051940;28;20048;-79
2022/07/13 10:10:38;;;;;;;3.08;1.80;;;;;;;25.74;36.22;96156.81;5046196;28;20050;-80
2022/07/13 10:13:05;;;;;;;3.90;1.80;;;;;;;25.85;36.28;96150.88;5050141;28;20069;-78
2022/07/13 10:15:31;;;;;;;3.13;1.67;;;;;;;25.90;33.50;96156.78;5052817;28;20063;-79
2022/07/13 10:17:59;;;;;;;2.60;1.55;;;;;;;25.73;33.45;96147.19;5050703;28;20037;-78
2022/07/13 10:20:26;;;;;;;3.55;1.70;;;;;;;26.11;35.08;96144.88;5052548;28;20099;-79
2022/07/13 10:22:52;;;;;;;1.50;1.40;;;;;;;26.62;30.65;96152.00;5050566;28;20041;-78
2022/07/13 10:25:19;;;;;;;2.78;1.65;;;;;;;26.97;32.91;96145.72;5052486;28;20080;-79
2022/07/13 10:27:44;;;;;;;2.10;1.70;;;;;;;27.19;29.89;96151.47;5051224;28;20045;-79
2022/07/13 10:30:23;;;;;;;1.95;1.50;;;;;;;27.08;32.28;96157.47;5050639;28;20056;-78
2022/07/13 10:32:48;;;;;;;2.75;1.70;;;;;;;27.10;32.16;96155.19;5052296;28;20044;-80
2022/07/13 10:35:20;;;;;;;2.05;1.60;;;;;;;26.86;29.46;96144.75;5052898;28;20166;-78
2022/07/13 10:38:01;;;;;;;2.90;1.70;;;;;;;27.08;30.92;96146.66;5042347;28;20049;-78
2022/07/13 10:40:28;;;;;;;3.88;1.70;;;;;;;27.63;31.56;96148.28;5048141;28;20041;-78
2022/07/13 10:42:53;;;;;;;2.05;1.38;;;;;;;27.85;30.75;96148.56;5050952;28;20037;-78
2022/07/13 10:45:34;;;;;;;4.50;1.90;;;;;;;26.85;33.24;96148.59;5052432;28;20091;-79
2022/07/13 10:48:02;;;;;;;3.97;1.80;;;;;;;27.90;33.49;96156.34;5049225;28;20045;-79
2022/07/13 10:50:34;;;;;;;17.15;1.90;;;;;;;27.38;32.88;96143.28;5038946;28;20543;-78
2022/07/13 10:53:00;;;;;;;2.17;1.90;;;;;;;27.55;33.87;96149.31;5039295;28;20033;-78
2022/07/13 10:55:33;;;;;;;4.50;1.90;;;;;;;28.03;34.74;96149.63;5052221;28;20041;-78
2022/07/13 10:58:00;;;;;;;5.32;2.05;;;;;;;28.26;35.36;96137.88;5050179;28;20071;-79
2022/07/13 11:00:43;;;;;;;4.95;1.80;;;;;;;28.50;34.03;96134.69;5043694;28;20491;-78
2022/07/13 11:03:23;;;;;;;3.67;2.10;;;;;;;28.59;33.39;96136.28;5051654;28;20119;-78
2022/07/13 11:06:08;;;;;;;7.50;2.17;;;;;;;28.22;33.69;96139.78;5047910;28;20041;-78
2022/07/13 11:08:34;;;;;;;6.07;1.80;;;;;;;28.23;32.76;96130.50;5043527;28;20073;-78
2022/07/13 11:11:14;;;;;;;3.67;2.00;;;;;;;28.69;32.16;96124.81;5037380;28;20045;-78
2022/07/13 11:13:41;;;;;;;4.05;1.90;;;;;;;27.98;31.49;96125.59;5050745;28;20041;-78
2022/07/13 11:16:07;;;;;;;6.68;1.90;;;;;;;28.26;32.77;96119.72;5050714;28;20049;-79
2022/07/13 11:18:53;;;;;;;5.03;1.90;;;;;;;29.58;30.96;96118.53;5051778;28;20088;-79
2022/07/13 11:21:22;;;;;;;4.88;2.00;;;;;;;30.38;29.10;96112.31;5048073;28;20048;-78
2022/07/13 11:26:59;;;;;;;2.72;1.85;;;;;;;30.03;29.48;96104.84;5051346;28;20041;-79
2022/07/13 11:29:49;;;;;;;3.83;1.93;;;;;;;29.69;30.46;96102.34;5049243;28;20045;-79
2022/07/13 11:32:20;;;;;;;4.15;1.80;;;;;;;31.11;27.85;96099.63;5049309;28;20044;-78
2022/07/13 11:34:46;;;;;;;2.30;1.73;;;;;;;30.80;28.76;96101.91;5053893;28;20049;-78
2022/07/13 11:37:13;;;;;;;6.00;2.00;;;;;;;30.48;29.21;96094.53;5055259;28;20080;-80
2022/07/13 11:39:39;;;;;;;4.70;1.70;;;;;;;31.09;29.48;96096.53;5042599;28;20048;-80